NJE87 LSZB-LFMN
Flight info
| Callsign | NJE87 |
|---|---|
| Flight time | 0h 56m |
| Altitude | 40000 |
| Route | AMRID Z144 ESEVA Z669 VADAR Y58 GEVEA DCT KOGAS DCT MEDAM DCT VEVAR |
| Aircraft | C700/M-SBDGHM1RWXY/LB2 |
Departure
| Time | 2026-05-04 17:15 |
|---|---|
| Airport | Bern Airport (LSZB) |
Arrival
| Time | 2026-05-04 18:12 |
|---|---|
| Airport | Nice-Côte d'Azur Airport (LFMN) |
| Time | Latitude | Longitude | Altitude | Speed | Heading |
|---|---|---|---|---|---|
| 2026-05-04 16:42 | 46.91491 | 7.49820 | 1675 ft | 0 kts | 138° |
| 2026-05-04 17:07 | 46.91486 | 7.49816 | 1675 ft | 1 kts | 221° |
| 2026-05-04 17:07 | 46.91496 | 7.49782 | 1678 ft | 8 kts | 290° |
| 2026-05-04 17:08 | 46.91509 | 7.49748 | 1680 ft | 0 kts | 313° |
| 2026-05-04 17:09 | 46.91511 | 7.49745 | 1679 ft | 1 kts | 316° |
| 2026-05-04 17:10 | 46.91530 | 7.49712 | 1677 ft | 0 kts | 285° |
| 2026-05-04 17:12 | 46.91527 | 7.49694 | 1678 ft | 5 kts | 249° |
| 2026-05-04 17:12 | 46.91546 | 7.49553 | 1676 ft | 10 kts | 320° |
| 2026-05-04 17:13 | 46.91750 | 7.49303 | 1681 ft | 16 kts | 322° |
| 2026-05-04 17:14 | 46.91951 | 7.49036 | 1671 ft | 6 kts | 348° |
| 2026-05-04 17:14 | 46.91956 | 7.49075 | 1672 ft | 5 kts | 158° |
| 2026-05-04 17:14 | 46.91798 | 7.49245 | 1684 ft | 63 kts | 140° |
| 2026-05-04 17:15 | 46.91215 | 7.49959 | 1707 ft | 148 kts | 142° |
| 2026-05-04 17:15 | 46.89409 | 7.52088 | 3355 ft | 191 kts | 137° |
| 2026-05-04 17:16 | 46.88991 | 7.55936 | 5683 ft | 194 kts | 73° |
| 2026-05-04 17:16 | 46.92271 | 7.58861 | 9626 ft | 208 kts | 5° |
| 2026-05-04 17:17 | 46.93759 | 7.59138 | 10837 ft | 221 kts | 8° |
| 2026-05-04 17:17 | 46.98027 | 7.62433 | 14144 ft | 270 kts | 45° |
| 2026-05-04 17:18 | 46.99440 | 7.64436 | 14932 ft | 295 kts | 39° |
| 2026-05-04 17:18 | 47.03572 | 7.65584 | 16350 ft | 335 kts | 338° |
| 2026-05-04 17:19 | 47.06786 | 7.60708 | 18001 ft | 363 kts | 287° |
| 2026-05-04 17:19 | 47.05974 | 7.53699 | 20810 ft | 338 kts | 231° |
| 2026-05-04 17:20 | 47.02891 | 7.48432 | 23410 ft | 348 kts | 227° |
| 2026-05-04 17:20 | 46.99655 | 7.42997 | 25266 ft | 359 kts | 227° |
| 2026-05-04 17:20 | 46.98015 | 7.40211 | 26156 ft | 364 kts | 227° |
| 2026-05-04 17:21 | 46.94639 | 7.34528 | 27904 ft | 375 kts | 227° |
| 2026-05-04 17:21 | 46.91611 | 7.28150 | 29526 ft | 389 kts | 236° |
| 2026-05-04 17:22 | 46.90195 | 7.24815 | 30269 ft | 394 kts | 235° |
| 2026-05-04 17:22 | 46.88711 | 7.21361 | 31035 ft | 396 kts | 235° |
| 2026-05-04 17:23 | 46.84328 | 7.11073 | 33260 ft | 403 kts | 236° |
| 2026-05-04 17:23 | 46.82849 | 7.07622 | 34209 ft | 397 kts | 236° |
| 2026-05-04 17:23 | 46.79873 | 7.00863 | 35585 ft | 395 kts | 232° |
| 2026-05-04 17:24 | 46.78140 | 6.97742 | 36046 ft | 400 kts | 231° |
| 2026-05-04 17:24 | 46.72603 | 6.87714 | 36057 ft | 445 kts | 231° |
| 2026-05-04 17:25 | 46.70643 | 6.84196 | 36049 ft | 441 kts | 231° |
| 2026-05-04 17:25 | 46.66949 | 6.77548 | 36031 ft | 405 kts | 231° |
| 2026-05-04 17:26 | 46.63431 | 6.71207 | 36036 ft | 410 kts | 231° |
| 2026-05-04 17:26 | 46.57883 | 6.61212 | 36045 ft | 428 kts | 231° |
| 2026-05-04 17:27 | 46.54196 | 6.54572 | 36038 ft | 420 kts | 231° |
| 2026-05-04 17:28 | 46.46598 | 6.41691 | 36047 ft | 423 kts | 223° |
| 2026-05-04 17:29 | 46.33273 | 6.25471 | 36040 ft | 406 kts | 218° |
| 2026-05-04 17:30 | 46.26635 | 6.20474 | 36037 ft | 409 kts | 200° |
| 2026-05-04 17:31 | 46.20994 | 6.19005 | 36042 ft | 418 kts | 187° |
| 2026-05-04 17:31 | 46.12274 | 6.20902 | 36036 ft | 432 kts | 165° |
| 2026-05-04 17:32 | 46.06674 | 6.24148 | 36037 ft | 435 kts | 163° |
| 2026-05-04 17:33 | 45.95328 | 6.30726 | 36041 ft | 441 kts | 163° |
| 2026-05-04 17:34 | 45.83844 | 6.37344 | 36056 ft | 456 kts | 163° |
| 2026-05-04 17:35 | 45.75630 | 6.44408 | 36042 ft | 463 kts | 150° |
| 2026-05-04 17:35 | 45.70395 | 6.49720 | 36034 ft | 461 kts | 150° |
| 2026-05-04 17:36 | 45.65153 | 6.55054 | 36046 ft | 463 kts | 150° |
| 2026-05-04 17:36 | 45.59884 | 6.60391 | 36072 ft | 465 kts | 150° |
| 2026-05-04 17:37 | 45.54608 | 6.65729 | 36061 ft | 464 kts | 150° |
| 2026-05-04 17:37 | 45.49316 | 6.71066 | 36090 ft | 466 kts | 150° |
| 2026-05-04 17:38 | 45.44001 | 6.76416 | 36089 ft | 467 kts | 150° |
| 2026-05-04 17:38 | 45.38718 | 6.81723 | 36099 ft | 468 kts | 150° |
| 2026-05-04 17:39 | 45.30741 | 6.89693 | 36114 ft | 465 kts | 152° |
| 2026-05-04 17:39 | 45.25001 | 6.93578 | 36113 ft | 453 kts | 167° |
| 2026-05-04 17:40 | 45.18889 | 6.95188 | 36116 ft | 445 kts | 179° |
| 2026-05-04 17:40 | 45.12709 | 6.96153 | 36115 ft | 448 kts | 178° |
| 2026-05-04 17:41 | 45.06512 | 6.97130 | 36116 ft | 446 kts | 179° |
| 2026-05-04 17:41 | 45.00386 | 6.98079 | 36119 ft | 444 kts | 179° |
| 2026-05-04 17:42 | 44.94259 | 6.99040 | 36113 ft | 440 kts | 179° |
| 2026-05-04 17:42 | 44.91236 | 6.99511 | 35603 ft | 435 kts | 179° |
| 2026-05-04 17:42 | 44.88224 | 6.99974 | 35033 ft | 434 kts | 179° |
| 2026-05-04 17:43 | 44.85221 | 7.00438 | 34457 ft | 435 kts | 179° |
| 2026-05-04 17:43 | 44.82206 | 7.00907 | 33845 ft | 436 kts | 179° |
| 2026-05-04 17:43 | 44.79180 | 7.01432 | 33251 ft | 439 kts | 175° |
| 2026-05-04 17:43 | 44.76145 | 7.02175 | 32683 ft | 445 kts | 175° |
| 2026-05-04 17:44 | 44.73072 | 7.02914 | 32084 ft | 450 kts | 175° |
| 2026-05-04 17:44 | 44.69961 | 7.03642 | 31467 ft | 455 kts | 175° |
| 2026-05-04 17:44 | 44.66838 | 7.04383 | 30878 ft | 455 kts | 174° |
| 2026-05-04 17:44 | 44.63719 | 7.05132 | 30279 ft | 455 kts | 174° |
| 2026-05-04 17:45 | 44.60634 | 7.05870 | 29648 ft | 454 kts | 174° |
| 2026-05-04 17:45 | 44.57528 | 7.06604 | 29044 ft | 454 kts | 174° |
| 2026-05-04 17:45 | 44.54391 | 7.07343 | 28440 ft | 458 kts | 174° |
| 2026-05-04 17:45 | 44.51232 | 7.08093 | 27829 ft | 461 kts | 173° |
| 2026-05-04 17:46 | 44.48064 | 7.08847 | 27218 ft | 464 kts | 173° |
| 2026-05-04 17:46 | 44.44872 | 7.09594 | 26595 ft | 465 kts | 173° |
| 2026-05-04 17:46 | 44.41694 | 7.10349 | 26011 ft | 460 kts | 173° |
| 2026-05-04 17:46 | 44.38654 | 7.11079 | 25386 ft | 439 kts | 173° |
| 2026-05-04 17:47 | 44.35609 | 7.11787 | 24815 ft | 448 kts | 173° |
| 2026-05-04 17:47 | 44.32540 | 7.12500 | 24220 ft | 443 kts | 173° |
| 2026-05-04 17:47 | 44.29534 | 7.13216 | 23621 ft | 434 kts | 173° |
| 2026-05-04 17:47 | 44.26589 | 7.13915 | 23024 ft | 425 kts | 173° |
| 2026-05-04 17:48 | 44.23679 | 7.14592 | 22455 ft | 424 kts | 173° |
| 2026-05-04 17:48 | 44.20812 | 7.15582 | 22092 ft | 421 kts | 164° |
| 2026-05-04 17:48 | 44.18152 | 7.17057 | 22080 ft | 401 kts | 160° |
| 2026-05-04 17:48 | 44.15674 | 7.18519 | 22077 ft | 383 kts | 160° |
| 2026-05-04 17:49 | 44.13247 | 7.19936 | 21518 ft | 373 kts | 161° |
| 2026-05-04 17:49 | 44.10872 | 7.21321 | 20904 ft | 364 kts | 161° |
| 2026-05-04 17:49 | 44.08561 | 7.22678 | 20395 ft | 358 kts | 161° |
| 2026-05-04 17:49 | 44.06264 | 7.24026 | 19902 ft | 359 kts | 161° |
| 2026-05-04 17:50 | 44.03953 | 7.25374 | 19427 ft | 362 kts | 161° |
| 2026-05-04 17:50 | 44.01624 | 7.26732 | 18950 ft | 363 kts | 161° |
| 2026-05-04 17:50 | 43.99302 | 7.28094 | 18484 ft | 363 kts | 160° |
| 2026-05-04 17:50 | 43.96985 | 7.29449 | 17969 ft | 359 kts | 160° |
| 2026-05-04 17:51 | 43.94688 | 7.30786 | 17434 ft | 355 kts | 160° |
| 2026-05-04 17:51 | 43.92446 | 7.32090 | 16908 ft | 351 kts | 160° |
| 2026-05-04 17:51 | 43.90203 | 7.33396 | 16398 ft | 348 kts | 160° |
| 2026-05-04 17:51 | 43.87979 | 7.34689 | 15894 ft | 345 kts | 160° |
| 2026-05-04 17:52 | 43.85764 | 7.35980 | 15400 ft | 343 kts | 160° |
| 2026-05-04 17:52 | 43.83595 | 7.37342 | 14904 ft | 343 kts | 154° |
| 2026-05-04 17:52 | 43.81620 | 7.39225 | 14414 ft | 345 kts | 144° |
| 2026-05-04 17:52 | 43.79766 | 7.41324 | 14061 ft | 340 kts | 144° |
| 2026-05-04 17:53 | 43.77958 | 7.43349 | 14064 ft | 332 kts | 144° |
| 2026-05-04 17:53 | 43.76134 | 7.45374 | 14050 ft | 342 kts | 144° |
| 2026-05-04 17:53 | 43.74272 | 7.47448 | 13629 ft | 352 kts | 144° |
| 2026-05-04 17:53 | 43.72378 | 7.49574 | 13097 ft | 347 kts | 143° |
| 2026-05-04 17:54 | 43.70522 | 7.51653 | 12587 ft | 337 kts | 143° |
| 2026-05-04 17:54 | 43.68867 | 7.53904 | 12060 ft | 332 kts | 132° |
| 2026-05-04 17:54 | 43.67651 | 7.56593 | 11549 ft | 327 kts | 118° |
| 2026-05-04 17:54 | 43.66337 | 7.59062 | 11033 ft | 320 kts | 141° |
| 2026-05-04 17:55 | 43.64396 | 7.60493 | 10524 ft | 309 kts | 166° |
| 2026-05-04 17:55 | 43.62330 | 7.60647 | 10049 ft | 296 kts | 186° |
| 2026-05-04 17:55 | 43.60330 | 7.60181 | 9537 ft | 288 kts | 191° |
| 2026-05-04 17:55 | 43.58392 | 7.59570 | 9013 ft | 281 kts | 192° |
| 2026-05-04 17:56 | 43.56516 | 7.58933 | 8570 ft | 273 kts | 193° |
| 2026-05-04 17:56 | 43.54711 | 7.58294 | 8316 ft | 262 kts | 193° |
| 2026-05-04 17:56 | 43.52992 | 7.57597 | 8051 ft | 262 kts | 200° |
| 2026-05-04 17:56 | 43.51556 | 7.56018 | 7787 ft | 271 kts | 226° |
| 2026-05-04 17:57 | 43.50433 | 7.53904 | 7550 ft | 276 kts | 230° |
| 2026-05-04 17:57 | 43.49355 | 7.51691 | 7306 ft | 279 kts | 233° |
| 2026-05-04 17:57 | 43.48272 | 7.49455 | 7068 ft | 280 kts | 233° |
| 2026-05-04 17:57 | 43.47219 | 7.47234 | 6994 ft | 273 kts | 235° |
| 2026-05-04 17:58 | 43.46575 | 7.44759 | 6986 ft | 281 kts | 258° |
| 2026-05-04 17:58 | 43.46443 | 7.42037 | 6991 ft | 289 kts | 264° |
| 2026-05-04 17:58 | 43.46402 | 7.39268 | 7001 ft | 289 kts | 266° |
| 2026-05-04 17:58 | 43.46367 | 7.36499 | 7001 ft | 290 kts | 266° |
| 2026-05-04 17:59 | 43.46336 | 7.33736 | 6999 ft | 284 kts | 266° |
| 2026-05-04 17:59 | 43.46292 | 7.31084 | 6989 ft | 269 kts | 266° |
| 2026-05-04 17:59 | 43.46249 | 7.26077 | 6930 ft | 263 kts | 266° |
| 2026-05-04 18:00 | 43.46226 | 7.23559 | 6876 ft | 264 kts | 265° |
| 2026-05-04 18:00 | 43.46216 | 7.21010 | 6834 ft | 268 kts | 267° |
| 2026-05-04 18:00 | 43.46197 | 7.18444 | 6786 ft | 269 kts | 265° |
| 2026-05-04 18:00 | 43.46179 | 7.15884 | 6738 ft | 265 kts | 267° |
| 2026-05-04 18:01 | 43.46151 | 7.13371 | 6496 ft | 259 kts | 265° |
| 2026-05-04 18:01 | 43.46128 | 7.10916 | 6241 ft | 254 kts | 266° |
| 2026-05-04 18:01 | 43.46095 | 7.08508 | 5895 ft | 247 kts | 266° |
| 2026-05-04 18:02 | 43.45967 | 7.04056 | 4366 ft | 235 kts | 266° |
| 2026-05-04 18:02 | 43.45863 | 7.01736 | 4010 ft | 242 kts | 266° |
| 2026-05-04 18:02 | 43.45756 | 6.99484 | 4000 ft | 230 kts | 266° |
| 2026-05-04 18:02 | 43.45737 | 6.97328 | 3970 ft | 220 kts | 282° |
| 2026-05-04 18:03 | 43.46447 | 6.95616 | 3976 ft | 200 kts | 327° |
| 2026-05-04 18:03 | 43.47676 | 6.95030 | 3991 ft | 184 kts | 8° |
| 2026-05-04 18:03 | 43.48754 | 6.95728 | 3997 ft | 174 kts | 52° |
| 2026-05-04 18:03 | 43.49122 | 6.97277 | 4006 ft | 174 kts | 95° |
| 2026-05-04 18:04 | 43.48551 | 6.98700 | 3999 ft | 178 kts | 139° |
| 2026-05-04 18:04 | 43.47338 | 6.99156 | 4002 ft | 192 kts | 183° |
| 2026-05-04 18:04 | 43.45545 | 6.96470 | 4003 ft | 214 kts | 265° |
| 2026-05-04 18:05 | 43.45908 | 6.94553 | 4001 ft | 207 kts | 308° |
| 2026-05-04 18:05 | 43.47031 | 6.93447 | 3987 ft | 196 kts | 351° |
| 2026-05-04 18:05 | 43.48313 | 6.93620 | 3988 ft | 182 kts | 34° |
| 2026-05-04 18:05 | 43.49114 | 6.94833 | 4014 ft | 173 kts | 63° |
| 2026-05-04 18:06 | 43.50156 | 6.97887 | 4005 ft | 177 kts | 73° |
| 2026-05-04 18:06 | 43.50550 | 6.99475 | 4002 ft | 176 kts | 66° |
| 2026-05-04 18:06 | 43.51158 | 7.00950 | 3890 ft | 180 kts | 57° |
| 2026-05-04 18:07 | 43.52003 | 7.02259 | 3668 ft | 183 kts | 49° |
| 2026-05-04 18:07 | 43.52891 | 7.03530 | 3433 ft | 185 kts | 50° |
| 2026-05-04 18:07 | 43.53796 | 7.04764 | 3185 ft | 184 kts | 48° |
| 2026-05-04 18:07 | 43.54658 | 7.05936 | 2934 ft | 167 kts | 50° |
| 2026-05-04 18:08 | 43.55485 | 7.07092 | 2719 ft | 174 kts | 48° |
| 2026-05-04 18:08 | 43.56353 | 7.08259 | 2498 ft | 170 kts | 49° |
| 2026-05-04 18:08 | 43.57147 | 7.09364 | 2261 ft | 154 kts | 51° |
| 2026-05-04 18:08 | 43.57860 | 7.10338 | 2082 ft | 137 kts | 50° |
| 2026-05-04 18:09 | 43.59112 | 7.12077 | 1716 ft | 126 kts | 50° |
| 2026-05-04 18:09 | 43.60306 | 7.13730 | 1360 ft | 117 kts | 51° |
| 2026-05-04 18:10 | 43.60874 | 7.14530 | 1170 ft | 119 kts | 52° |
| 2026-05-04 18:10 | 43.61484 | 7.15317 | 1106 ft | 120 kts | 51° |
| 2026-05-04 18:10 | 43.62083 | 7.16141 | 989 ft | 121 kts | 52° |
| 2026-05-04 18:10 | 43.62667 | 7.16949 | 808 ft | 124 kts | 52° |
| 2026-05-04 18:11 | 43.63285 | 7.17814 | 618 ft | 125 kts | 50° |
| 2026-05-04 18:11 | 43.63917 | 7.18641 | 425 ft | 127 kts | 48° |
| 2026-05-04 18:11 | 43.64527 | 7.19492 | 259 ft | 124 kts | 51° |
| 2026-05-04 18:11 | 43.65122 | 7.20316 | 106 ft | 119 kts | 51° |
| 2026-05-04 18:12 | 43.65677 | 7.21066 | 21 ft | 96 kts | 54° |
| 2026-05-04 18:12 | 43.66001 | 7.21531 | 15 ft | 45 kts | 46° |
| 2026-05-04 18:12 | 43.66162 | 7.21745 | 16 ft | 19 kts | 38° |
| 2026-05-04 18:12 | 43.66225 | 7.21739 | 16 ft | 11 kts | 323° |
| 2026-05-04 18:13 | 43.66284 | 7.21664 | 16 ft | 10 kts | 332° |
| 2026-05-04 18:13 | 43.66345 | 7.21685 | 17 ft | 8 kts | 46° |
| 2026-05-04 18:13 | 43.66458 | 7.21844 | 16 ft | 14 kts | 45° |
| 2026-05-04 18:14 | 43.66534 | 7.21950 | 16 ft | 17 kts | 45° |
| 2026-05-04 18:14 | 43.66622 | 7.22069 | 16 ft | 19 kts | 43° |
| 2026-05-04 18:14 | 43.66710 | 7.22189 | 16 ft | 18 kts | 46° |
| 2026-05-04 18:15 | 43.66907 | 7.22464 | 16 ft | 22 kts | 44° |
| 2026-05-04 18:15 | 43.67126 | 7.22761 | 16 ft | 14 kts | 45° |
| 2026-05-04 18:15 | 43.67153 | 7.22798 | 16 ft | 6 kts | 47° |
| 2026-05-04 18:16 | 43.67189 | 7.22849 | 16 ft | 9 kts | 33° |
| 2026-05-04 18:16 | 43.67208 | 7.22862 | 16 ft | 0 kts | 13° |
| 2026-05-04 18:17 | 43.67209 | 7.22862 | 16 ft | 0 kts | 11° |
| 2026-05-04 18:17 | 43.67249 | 7.22759 | 17 ft | 14 kts | 236° |
| 2026-05-04 18:18 | 43.67241 | 7.22746 | 17 ft | 1 kts | 227° |
| 2026-05-04 18:18 | 43.67224 | 7.22711 | 16 ft | 3 kts | 263° |
| 2026-05-04 18:18 | 43.67229 | 7.22698 | 16 ft | 2 kts | 310° |
| 2026-05-04 18:18 | 43.67239 | 7.22685 | 18 ft | 0 kts | 316° |
| 2026-05-04 18:19 | 43.67241 | 7.22683 | 17 ft | 0 kts | 314° |